Time;durP1;ratioP1;P1;durP2;ratioP2;P2;SDS_P1;SDS_P2;PMS_P1;PMS_P2;Temp;Humidity;BMP_temperature;BMP_pressure;BME280_temperature;BME280_humidity;BME280_pressure;Samples;Min_cycle;Max_cycle;Signal;HPM_P1;HPM_P2
2023/07/12 05:11:16;;;;;;;;;;;;;;;;;;5018196;28;20406;-40
2023/07/12 05:13:41;;;;;;;;;;;;;;;;;;5013753;28;19913;-40
2023/07/12 05:16:07;;;;;;;;;;;;;;;;;;5013519;28;19968;-40
2023/07/12 05:18:34;;;;;;;;;;;;;;;;;;5013348;28;20406;-40
2023/07/12 05:21:00;;;;;;;;;;;;;;;;;;5013355;28;19909;-40
2023/07/12 05:23:26;;;;;;;;;;;;;;;;;;5012954;28;19916;-40
2023/07/12 05:25:51;;;;;;;;;;;;;;;;;;5013506;28;19993;-40
2023/07/12 05:28:17;;;;;;;;;;;;;;;;;;5012992;28;19913;-40
2023/07/12 05:30:43;;;;;;;;;;;;;;;;;;5013218;28;19976;-40
2023/07/12 05:33:09;;;;;;;;;;;;;;;;;;5012916;28;20441;-41
2023/07/12 05:35:35;;;;;;;;;;;;;;;;;;5012955;28;19963;-40
2023/07/12 05:38:02;;;;;;;;;;;;;;;;;;5012620;28;19948;-40
2023/07/12 05:40:29;;;;;;;;;;;;;;;;;;5013014;28;19959;-40
2023/07/12 05:42:55;;;;;;;;;;;;;;;;;;5012864;28;19964;-40
2023/07/12 05:45:21;;;;;;;;;;;;;;;;;;5012632;28;19949;-41
2023/07/12 05:47:47;;;;;;;;;;;;;;;;;;5012754;28;19917;-42
2023/07/12 05:50:13;;;;;;;;;;;;;;;;;;5012844;28;19910;-41
2023/07/12 05:52:39;;;;;;;;;;;;;;;;;;5012483;28;19948;-41
2023/07/12 05:55:04;;;;;;;;;;;;;;;;;;5012305;28;20323;-41
2023/07/12 05:57:30;;;;;;;;;;;;;;;;;;5010967;28;19921;-41
2023/07/12 05:59:56;;;;;;;;;;;;;;;;;;5012857;28;19909;-40
2023/07/12 06:02:23;;;;;;;;;;;;;;;;;;4995680;28;19989;-40
2023/07/12 06:04:49;;;;;;;;;;;;;;;;;;5013223;28;20454;-40
2023/07/12 06:07:15;;;;;;;;;;;;;;;;;;5013718;28;20008;-40
2023/07/12 06:09:41;;;;;;;;;;;;;;;;;;5013343;28;19965;-41
2023/07/12 06:12:06;;;;;;;;;;;;;;;;;;4995267;28;19918;-42
2023/07/12 06:14:32;;;;;;;;;;;;;;;;;;5013392;28;19964;-40
2023/07/12 06:16:58;;;;;;;;;;;;;;;;;;5012271;28;19920;-41
2023/07/12 06:19:24;;;;;;;;;;;;;;;;;;5012143;28;19920;-42
2023/07/12 06:21:50;;;;;;;;;;;;;;;;;;5012901;28;19910;-40
2023/07/12 06:24:16;;;;;;;;;;;;;;;;;;5012160;28;20823;-40
2023/07/12 06:26:42;;;;;;;;;;;;;;;;;;5011099;28;19960;-41
2023/07/12 06:29:08;;;;;;;;;;;;;;;;;;5012728;28;20471;-41
2023/07/12 06:31:34;;;;;;;;;;;;;;;;;;5011360;28;20569;-41
2023/07/12 06:34:00;;;;;;;;;;;;;;;;;;5011892;28;19920;-41
2023/07/12 06:36:26;;;;;;;;;;;;;;;;;;5012180;28;19968;-40
2023/07/12 06:38:52;;;;;;;;;;;;;;;;;;5012529;28;20404;-39
2023/07/12 06:41:18;;;;;;;;;;;;;;;;;;5012928;28;19920;-40
2023/07/12 06:43:44;;;;;;;;;;;;;;;;;;4995121;28;20015;-40
2023/07/12 06:46:10;;;;;;;;;;;;;;;;;;5012157;28;19920;-40
2023/07/12 06:48:35;;;;;;;;;;;;;;;;;;5007865;28;19921;-40
2023/07/12 06:51:02;;;;;;;;;;;;;;;;;;5011933;28;19992;-39
2023/07/12 06:53:28;;;;;;;;;;;;;;;;;;5012708;28;19922;-39
2023/07/12 06:55:54;;;;;;;;;;;;;;;;;;5012134;28;19918;-38
2023/07/12 06:58:20;;;;;;;;;;;;;;;;;;5007924;28;19924;-39
2023/07/12 07:00:46;;;;;;;;;;;;;;;;;;5013311;28;20000;-39
2023/07/12 07:03:12;;;;;;;;;;;;;;;;;;5012187;28;20352;-39
2023/07/12 07:05:38;;;;;;;;;;;;;;;;;;5013155;28;20016;-39
2023/07/12 07:08:04;;;;;;;;;;;;;;;;;;5012614;28;20388;-39
2023/07/12 07:10:29;;;;;;;;;;;;;;;;;;5014957;28;19917;-39
2023/07/12 07:12:55;;;;;;;;;;;;;;;;;;5027675;28;19910;-39
2023/07/12 07:15:23;;;;;;;;;;;;;;;;;;5029891;28;20136;-39
2023/07/12 07:17:49;;;;;;;;;;;;;;;;;;5050833;28;19916;-39
2023/07/12 07:20:15;;;;;;;;;;;;;;;;;;5042404;28;19913;-39
2023/07/12 07:22:41;;;;;;;;;;;;;;;;;;5031634;28;19913;-39
2023/07/12 07:25:07;;;;;;;;;;;;;;;;;;5030341;28;20530;-39
2023/07/12 07:27:33;;;;;;;;;;;;;;;;;;5032410;28;19909;-39
2023/07/12 07:29:59;;;;;;;;;;;;;;;;;;5047889;28;19920;-39
2023/07/12 07:32:25;;;;;;;;;;;;;;;;;;5047561;28;19956;-39
2023/07/12 07:34:50;;;;;;;;;;;;;;;;;;5048225;28;19912;-39
2023/07/12 07:37:16;;;;;;;;;;;;;;;;;;5048168;28;19916;-39
2023/07/12 07:39:42;;;;;;;;;;;;;;;;;;5049008;28;19909;-39
2023/07/12 07:42:08;;;;;;;;;;;;;;;;;;5049108;28;20443;-39
2023/07/12 07:44:34;;;;;;;;;;;;;;;;;;5048924;28;19945;-39
2023/07/12 07:47:00;;;;;;;;;;;;;;;;;;5047373;28;20318;-39
2023/07/12 07:49:26;;;;;;;;;;;;;;;;;;5049259;28;20326;-39
2023/07/12 07:51:54;;;;;;;;;;;;;;;;;;5047706;28;19965;-39
2023/07/12 07:54:21;;;;;;;;;;;;;;;;;;5046395;28;20008;-39
2023/07/12 07:56:47;;;;;;;;;;;;;;;;;;5049305;28;19916;-38
2023/07/12 07:59:12;;;;;;;;;;;;;;;;;;5048370;28;19908;-39
2023/07/12 08:01:38;;;;;;;;;;;;;;;;;;5047410;28;19909;-39
2023/07/12 08:04:05;;;;;;;;;;;;;;;;;;5045795;28;19921;-39
2023/07/12 08:06:33;;;;;;;;;;;;;;;;;;5047972;28;19913;-39
2023/07/12 08:08:59;;;;;;;;;;;;;;;;;;5046567;28;19920;-39
2023/07/12 08:11:25;;;;;;;;;;;;;;;;;;5048324;28;20280;-39
2023/07/12 08:13:50;;;;;;;;;;;;;;;;;;5048405;28;19909;-39
2023/07/12 08:16:16;;;;;;;;;;;;;;;;;;5048755;28;20004;-39
2023/07/12 08:18:42;;;;;;;;;;;;;;;;;;5047713;28;19917;-39
2023/07/12 08:21:08;;;;;;;;;;;;;;;;;;5048292;28;19958;-39
2023/07/12 08:23:34;;;;;;;;;;;;;;;;;;5048432;28;20375;-39
2023/07/12 08:26:00;;;;;;;;;;;;;;;;;;5048142;28;20015;-39
2023/07/12 08:28:26;;;;;;;;;;;;;;;;;;5046916;28;19917;-39
2023/07/12 08:30:52;;;;;;;;;;;;;;;;;;5048066;28;19913;-39
2023/07/12 08:33:18;;;;;;;;;;;;;;;;;;5047241;28;19959;-39
2023/07/12 08:35:44;;;;;;;;;;;;;;;;;;5048319;28;19909;-39
2023/07/12 08:38:10;;;;;;;;;;;;;;;;;;5047171;28;19913;-39
2023/07/12 08:40:36;;;;;;;;;;;;;;;;;;5048500;28;19999;-39
2023/07/12 08:43:02;;;;;;;;;;;;;;;;;;5047889;28;19908;-39
2023/07/12 08:45:33;;;;;;;;;;;;;;;;;;5048264;28;19916;-39
2023/07/12 08:47:59;;;;;;;;;;;;;;;;;;5048621;28;19916;-39
2023/07/12 08:50:25;;;;;;;;;;;;;;;;;;5047912;28;20314;-39
2023/07/12 08:52:51;;;;;;;;;;;;;;;;;;5046883;28;20031;-39
2023/07/12 08:55:18;;;;;;;;;;;;;;;;;;5047875;28;20453;-39
2023/07/12 08:57:44;;;;;;;;;;;;;;;;;;5047950;28;20330;-39
2023/07/12 09:00:10;;;;;;;;;;;;;;;;;;5047526;28;19909;-39
2023/07/12 09:02:36;;;;;;;;;;;;;;;;;;5047895;28;19915;-39
2023/07/12 09:05:02;;;;;;;;;;;;;;;;;;5047662;28;19995;-39
2023/07/12 09:07:29;;;;;;;;;;;;;;;;;;5047229;28;19999;-39
2023/07/12 09:09:55;;;;;;;;;;;;;;;;;;5047112;28;20016;-39
2023/07/12 09:12:20;;;;;;;;;;;;;;;;;;5046438;28;20039;-39
2023/07/12 09:14:46;;;;;;;;;;;;;;;;;;5047844;28;19934;-39
2023/07/12 09:17:12;;;;;;;;;;;;;;;;;;5047047;28;19909;-39
2023/07/12 09:19:38;;;;;;;;;;;;;;;;;;5048361;28;19912;-39
2023/07/12 09:22:04;;;;;;;;;;;;;;;;;;5047627;28;19913;-39
2023/07/12 09:24:33;;;;;;;;;;;;;;;;;;5049585;28;19916;-39
2023/07/12 09:26:59;;;;;;;;;;;;;;;;;;5047419;28;20311;-39
2023/07/12 09:29:24;;;;;;;;;;;;;;;;;;5047277;28;20011;-39
2023/07/12 09:31:51;;;;;;;;;;;;;;;;;;5043996;28;19913;-39
2023/07/12 09:34:17;;;;;;;;;;;;;;;;;;5047118;28;19917;-39
2023/07/12 09:36:43;;;;;;;;;;;;;;;;;;5048649;28;19920;-39
2023/07/12 09:39:09;;;;;;;;;;;;;;;;;;5049157;28;19995;-39
2023/07/12 09:41:35;;;;;;;;;;;;;;;;;;5047064;28;19948;-39
2023/07/12 09:44:01;;;;;;;;;;;;;;;;;;5047232;28;20379;-39
2023/07/12 09:46:27;;;;;;;;;;;;;;;;;;5047427;28;19913;-39
2023/07/12 09:48:53;;;;;;;;;;;;;;;;;;5047102;28;19909;-39
2023/07/12 09:51:19;;;;;;;;;;;;;;;;;;5046058;28;19974;-39
2023/07/12 09:53:45;;;;;;;;;;;;;;;;;;5047288;28;19909;-39
2023/07/12 09:56:11;;;;;;;;;;;;;;;;;;5048199;28;19966;-39
2023/07/12 09:58:37;;;;;;;;;;;;;;;;;;5049707;28;19909;-39
2023/07/12 10:01:02;;;;;;;;;;;;;;;;;;5050979;28;19971;-39
2023/07/12 10:03:28;;;;;;;;;;;;;;;;;;5051090;28;20360;-39
2023/07/12 10:05:54;;;;;;;;;;;;;;;;;;5050826;28;19948;-39
2023/07/12 10:08:20;;;;;;;;;;;;;;;;;;5031431;28;19913;-39
2023/07/12 10:10:46;;;;;;;;;;;;;;;;;;5049370;28;19924;-38
2023/07/12 10:13:12;;;;;;;;;;;;;;;;;;5049859;28;19913;-39
2023/07/12 10:15:38;;;;;;;;;;;;;;;;;;5050912;28;20375;-39
2023/07/12 10:18:04;;;;;;;;;;;;;;;;;;5051137;28;19917;-39
2023/07/12 10:20:30;;;;;;;;;;;;;;;;;;5050755;28;19984;-39
2023/07/12 10:22:56;;;;;;;;;;;;;;;;;;5051641;28;20272;-39
2023/07/12 10:25:23;;;;;;;;;;;;;;;;;;5050762;28;19909;-39
2023/07/12 10:27:49;;;;;;;;;;;;;;;;;;5051179;28;19913;-39
2023/07/12 10:30:15;;;;;;;;;;;;;;;;;;5031950;28;19908;-39
2023/07/12 10:32:41;;;;;;;;;;;;;;;;;;5051052;28;20345;-39
2023/07/12 10:35:07;;;;;;;;;;;;;;;;;;5046353;28;20169;-39
2023/07/12 10:37:32;;;;;;;;;;;;;;;;;;5031801;28;19978;-39
2023/07/12 10:39:58;;;;;;;;;;;;;;;;;;5048226;28;19919;-40
2023/07/12 10:42:24;;;;;;;;;;;;;;;;;;5049376;28;19936;-40
2023/07/12 10:44:50;;;;;;;;;;;;;;;;;;5047402;28;19994;-40
2023/07/12 10:47:16;;;;;;;;;;;;;;;;;;5047480;28;20302;-40
2023/07/12 10:49:42;;;;;;;;;;;;;;;;;;5049716;28;19915;-40
2023/07/12 10:52:08;;;;;;;;;;;;;;;;;;5048681;28;19924;-40
2023/07/12 10:54:34;;;;;;;;;;;;;;;;;;5045204;28;20514;-40
2023/07/12 10:57:00;;;;;;;;;;;;;;;;;;5049385;28;20016;-40
2023/07/12 10:59:27;;;;;;;;;;;;;;;;;;5048341;28;19916;-40
2023/07/12 11:01:53;;;;;;;;;;;;;;;;;;5048469;28;19909;-40
2023/07/12 11:04:19;;;;;;;;;;;;;;;;;;5048365;28;19916;-39
2023/07/12 11:06:45;;;;;;;;;;;;;;;;;;5047865;28;19908;-39
2023/07/12 11:09:11;;;;;;;;;;;;;;;;;;5050114;28;19909;-40
2023/07/12 11:11:37;;;;;;;;;;;;;;;;;;5040341;28;19917;-39
2023/07/12 11:14:02;;;;;;;;;;;;;;;;;;5028788;28;19917;-39
2023/07/12 11:16:28;;;;;;;;;;;;;;;;;;5028025;28;19913;-40
2023/07/12 11:18:54;;;;;;;;;;;;;;;;;;5028366;28;19909;-40
2023/07/12 11:21:20;;;;;;;;;;;;;;;;;;5027471;28;19917;-40
2023/07/12 11:23:46;;;;;;;;;;;;;;;;;;5027493;28;20001;-40
2023/07/12 11:26:12;;;;;;;;;;;;;;;;;;5028841;28;19931;-40
2023/07/12 11:28:39;;;;;;;;;;;;;;;;;;5028690;28;19924;-39
2023/07/12 11:31:04;;;;;;;;;;;;;;;;;;5027941;28;19952;-40
2023/07/12 11:33:30;;;;;;;;;;;;;;;;;;5026820;28;20006;-40
2023/07/12 11:35:56;;;;;;;;;;;;;;;;;;5009813;28;20423;-40
2023/07/12 11:38:22;;;;;;;;;;;;;;;;;;5027079;28;19920;-40
2023/07/12 11:40:48;;;;;;;;;;;;;;;;;;5027279;28;20307;-40
2023/07/12 11:43:14;;;;;;;;;;;;;;;;;;5026594;28;19967;-40
2023/07/12 11:45:40;;;;;;;;;;;;;;;;;;5027221;28;20405;-40
2023/07/12 11:48:06;;;;;;;;;;;;;;;;;;5028455;28;19920;-39
2023/07/12 11:50:32;;;;;;;;;;;;;;;;;;5027299;28;19913;-40
2023/07/12 11:52:57;;;;;;;;;;;;;;;;;;5028392;28;19909;-40
2023/07/12 11:55:23;;;;;;;;;;;;;;;;;;5025827;28;19948;-40
2023/07/12 11:57:49;;;;;;;;;;;;;;;;;;5030187;28;19913;-40
2023/07/12 12:00:15;;;;;;;;;;;;;;;;;;5026701;28;20492;-40
2023/07/12 12:02:41;;;;;;;;;;;;;;;;;;5037717;28;19913;-40
2023/07/12 12:05:07;;;;;;;;;;;;;;;;;;5016452;28;19924;-40
2023/07/12 12:07:33;;;;;;;;;;;;;;;;;;5025272;28;20557;-40
2023/07/12 12:09:59;;;;;;;;;;;;;;;;;;5031743;28;20007;-40
2023/07/12 12:12:25;;;;;;;;;;;;;;;;;;5046642;28;19942;-40
2023/07/12 12:14:51;;;;;;;;;;;;;;;;;;5045536;28;19913;-42
2023/07/12 12:17:16;;;;;;;;;;;;;;;;;;5035054;28;19913;-41
2023/07/12 12:19:42;;;;;;;;;;;;;;;;;;5046211;28;19996;-42
2023/07/12 12:22:08;;;;;;;;;;;;;;;;;;5033996;28;19936;-41
2023/07/12 12:24:34;;;;;;;;;;;;;;;;;;5040524;28;19944;-42
2023/07/12 12:27:00;;;;;;;;;;;;;;;;;;5050034;28;19967;-41
2023/07/12 12:29:26;;;;;;;;;;;;;;;;;;5046114;28;20006;-41
2023/07/12 12:31:52;;;;;;;;;;;;;;;;;;5045846;28;20390;-41
2023/07/12 12:34:18;;;;;;;;;;;;;;;;;;5045925;28;19908;-41
2023/07/12 12:36:44;;;;;;;;;;;;;;;;;;5046356;28;20474;-41
2023/07/12 12:39:10;;;;;;;;;;;;;;;;;;5042593;28;19913;-41
2023/07/12 12:41:36;;;;;;;;;;;;;;;;;;5026204;28;20804;-40
2023/07/12 12:44:02;;;;;;;;;;;;;;;;;;5027461;28;19985;-40
2023/07/12 12:46:28;;;;;;;;;;;;;;;;;;5037293;28;19940;-40
2023/07/12 12:48:54;;;;;;;;;;;;;;;;;;5027161;28;19912;-40
2023/07/12 12:51:20;;;;;;;;;;;;;;;;;;5041529;28;20012;-40
2023/07/12 12:53:46;;;;;;;;;;;;;;;;;;5043966;28;20093;-40
2023/07/12 12:56:12;;;;;;;;;;;;;;;;;;5045295;28;19958;-40
2023/07/12 12:58:38;;;;;;;;;;;;;;;;;;5027202;28;19955;-40
2023/07/12 13:01:04;;;;;;;;;;;;;;;;;;5045527;28;19909;-40
2023/07/12 13:03:30;;;;;;;;;;;;;;;;;;5043677;28;19999;-40
2023/07/12 13:05:56;;;;;;;;;;;;;;;;;;5042329;28;20215;-40
2023/07/12 13:08:22;;;;;;;;;;;;;;;;;;5044483;28;19959;-40
2023/07/12 13:10:48;;;;;;;;;;;;;;;;;;5019488;28;19924;-40
2023/07/12 13:13:14;;;;;;;;;;;;;;;;;;5019302;28;20013;-40
2023/07/12 13:15:41;;;;;;;;;;;;;;;;;;5025860;28;20028;-40
2023/07/12 13:18:07;;;;;;;;;;;;;;;;;;5024168;28;20432;-40
2023/07/12 13:20:33;;;;;;;;;;;;;;;;;;5024429;28;19914;-41
2023/07/12 13:22:59;;;;;;;;;;;;;;;;;;5022735;28;19923;-40
2023/07/12 13:25:25;;;;;;;;;;;;;;;;;;5024393;28;20000;-40
2023/07/12 13:27:51;;;;;;;;;;;;;;;;;;5024216;28;19909;-40
2023/07/12 13:30:17;;;;;;;;;;;;;;;;;;5023168;28;19920;-40
2023/07/12 13:32:43;;;;;;;;;;;;;;;;;;5027635;28;19956;-40
2023/07/12 13:35:09;;;;;;;;;;;;;;;;;;5027893;28;20291;-40
2023/07/12 13:37:34;;;;;;;;;;;;;;;;;;5027504;28;19917;-40
2023/07/12 13:40:00;;;;;;;;;;;;;;;;;;5026321;28;20350;-40
2023/07/12 13:42:26;;;;;;;;;;;;;;;;;;5028547;28;20062;-40
2023/07/12 13:44:52;;;;;;;;;;;;;;;;;;5027171;28;19920;-40
2023/07/12 13:47:18;;;;;;;;;;;;;;;;;;5021768;28;20068;-40
2023/07/12 13:49:47;;;;;;;;;;;;;;;;;;5026028;28;19924;-40
2023/07/12 13:52:13;;;;;;;;;;;;;;;;;;5029564;28;19920;-40
2023/07/12 13:54:39;;;;;;;;;;;;;;;;;;5025645;28;19913;-40
2023/07/12 13:57:04;;;;;;;;;;;;;;;;;;5027696;28;20000;-40
2023/07/12 13:59:30;;;;;;;;;;;;;;;;;;5025767;28;19967;-40
2023/07/12 14:01:56;;;;;;;;;;;;;;;;;;5028911;28;19909;-40
2023/07/12 14:04:22;;;;;;;;;;;;;;;;;;5028258;28;20387;-40
2023/07/12 14:06:48;;;;;;;;;;;;;;;;;;5028034;28;19920;-40
2023/07/12 14:09:14;;;;;;;;;;;;;;;;;;5029131;28;19932;-41
2023/07/12 14:11:40;;;;;;;;;;;;;;;;;;5048238;28;20298;-40
2023/07/12 14:14:06;;;;;;;;;;;;;;;;;;5045537;28;19920;-40
2023/07/12 14:16:33;;;;;;;;;;;;;;;;;;5047181;28;19967;-40
2023/07/12 14:18:59;;;;;;;;;;;;;;;;;;5048188;28;19909;-40
2023/07/12 14:21:25;;;;;;;;;;;;;;;;;;5040080;28;19921;-40
2023/07/12 14:23:51;;;;;;;;;;;;;;;;;;5045734;28;19913;-40
2023/07/12 14:26:17;;;;;;;;;;;;;;;;;;5048756;28;19916;-40
2023/07/12 14:28:43;;;;;;;;;;;;;;;;;;5049921;28;19909;-40
2023/07/12 14:31:09;;;;;;;;;;;;;;;;;;5049545;28;20003;-40
2023/07/12 14:33:35;;;;;;;;;;;;;;;;;;5049421;28;20008;-39
2023/07/12 14:36:01;;;;;;;;;;;;;;;;;;5048802;28;20279;-40
2023/07/12 14:38:27;;;;;;;;;;;;;;;;;;5049531;28;19913;-40
2023/07/12 14:40:53;;;;;;;;;;;;;;;;;;5047541;28;19912;-40
2023/07/12 14:43:18;;;;;;;;;;;;;;;;;;5047029;28;19916;-39
2023/07/12 14:45:44;;;;;;;;;;;;;;;;;;5044714;28;19927;-39
2023/07/12 14:48:11;;;;;;;;;;;;;;;;;;5048951;28;19913;-39
2023/07/12 14:50:36;;;;;;;;;;;;;;;;;;5028711;28;20780;-39
2023/07/12 14:53:02;;;;;;;;;;;;;;;;;;5047445;28;19917;-39
2023/07/12 14:55:28;;;;;;;;;;;;;;;;;;5046416;28;19995;-39
2023/07/12 14:57:54;;;;;;;;;;;;;;;;;;5030212;28;19912;-40
2023/07/12 15:00:20;;;;;;;;;;;;;;;;;;5048309;28;20375;-40
2023/07/12 15:02:46;;;;;;;;;;;;;;;;;;5049090;28;19949;-40
2023/07/12 15:05:12;;;;;;;;;;;;;;;;;;5026832;28;19971;-40
2023/07/12 15:07:41;;;;;;;;;;;;;;;;;;5036122;28;19912;-40
2023/07/12 15:10:07;;;;;;;;;;;;;;;;;;5046818;28;20346;-40
2023/07/12 15:12:33;;;;;;;;;;;;;;;;;;5046759;28;19916;-40
2023/07/12 15:14:59;;;;;;;;;;;;;;;;;;5043469;28;19957;-40
2023/07/12 15:17:25;;;;;;;;;;;;;;;;;;5042930;28;19952;-40
2023/07/12 15:19:51;;;;;;;;;;;;;;;;;;5045457;28;19920;-40
2023/07/12 15:22:17;;;;;;;;;;;;;;;;;;5043898;28;20396;-40
2023/07/12 15:24:43;;;;;;;;;;;;;;;;;;5045691;28;19916;-40
2023/07/12 15:27:11;;;;;;;;;;;;;;;;;;5044827;28;19995;-40
2023/07/12 15:29:37;;;;;;;;;;;;;;;;;;5042723;28;19964;-40
2023/07/12 15:32:03;;;;;;;;;;;;;;;;;;5036386;28;20375;-40
2023/07/12 15:34:29;;;;;;;;;;;;;;;;;;5041306;28;20061;-40
2023/07/12 15:36:55;;;;;;;;;;;;;;;;;;5043750;28;19952;-41
2023/07/12 15:39:23;;;;;;;;;;;;;;;;;;5042563;28;19912;-40
2023/07/12 15:41:49;;;;;;;;;;;;;;;;;;5035272;28;19921;-41
2023/07/12 15:44:15;;;;;;;;;;;;;;;;;;5045764;28;19974;-41
2023/07/12 15:46:41;;;;;;;;;;;;;;;;;;5040882;28;20341;-40
2023/07/12 15:49:08;;;;;;;;;;;;;;;;;;5042360;28;19920;-40
2023/07/12 15:51:34;;;;;;;;;;;;;;;;;;5046888;28;19921;-40
2023/07/12 15:54:00;;;;;;;;;;;;;;;;;;5018831;28;19966;-40
2023/07/12 15:56:25;;;;;;;;;;;;;;;;;;5044221;28;19916;-41
2023/07/12 15:58:52;;;;;;;;;;;;;;;;;;5045225;28;20437;-40
2023/07/12 16:01:18;;;;;;;;;;;;;;;;;;5044854;28;20439;-40
2023/07/12 16:03:44;;;;;;;;;;;;;;;;;;5043710;28;20015;-40
2023/07/12 16:06:10;;;;;;;;;;;;;;;;;;5043471;28;19920;-40
2023/07/12 16:08:36;;;;;;;;;;;;;;;;;;5044005;28;19960;-40
2023/07/12 16:11:01;;;;;;;;;;;;;;;;;;5023044;28;20747;-40
2023/07/12 16:13:27;;;;;;;;;;;;;;;;;;5024355;28;20303;-40
2023/07/12 16:15:53;;;;;;;;;;;;;;;;;;5017416;28;19959;-40
2023/07/12 16:18:19;;;;;;;;;;;;;;;;;;5024760;28;20019;-40
2023/07/12 16:20:45;;;;;;;;;;;;;;;;;;5023037;28;20470;-40
2023/07/12 16:23:11;;;;;;;;;;;;;;;;;;5025085;28;19913;-40
2023/07/12 16:25:37;;;;;;;;;;;;;;;;;;5021396;28;19921;-40
2023/07/12 16:28:03;;;;;;;;;;;;;;;;;;5022551;28;20027;-40
2023/07/12 16:30:29;;;;;;;;;;;;;;;;;;5021815;28;19921;-40
2023/07/12 16:32:55;;;;;;;;;;;;;;;;;;5025823;28;20303;-40
2023/07/12 16:35:20;;;;;;;;;;;;;;;;;;5026405;28;19953;-40
2023/07/12 16:37:48;;;;;;;;;;;;;;;;;;5026134;28;20668;-40
2023/07/12 16:40:15;;;;;;;;;;;;;;;;;;5026365;28;19909;-40
2023/07/12 16:42:40;;;;;;;;;;;;;;;;;;5026472;28;19916;-40
2023/07/12 16:45:12;;;;;;;;;;;;;;;;;;5025194;28;19917;-40
2023/07/12 16:47:37;;;;;;;;;;;;;;;;;;5026504;28;19917;-40
2023/07/12 16:50:03;;;;;;;;;;;;;;;;;;5024473;28;20354;-40
2023/07/12 16:52:29;;;;;;;;;;;;;;;;;;5015878;28;19917;-41
2023/07/12 16:54:57;;;;;;;;;;;;;;;;;;5026426;28;19944;-40
2023/07/12 16:57:23;;;;;;;;;;;;;;;;;;5026344;28;19917;-40
2023/07/12 16:59:48;;;;;;;;;;;;;;;;;;5026295;28;19909;-41
2023/07/12 17:02:14;;;;;;;;;;;;;;;;;;5026924;28;19909;-41
2023/07/12 17:04:40;;;;;;;;;;;;;;;;;;5020607;28;20386;-41
2023/07/12 17:07:06;;;;;;;;;;;;;;;;;;5026289;28;19913;-40
2023/07/12 17:09:32;;;;;;;;;;;;;;;;;;5030406;28;20385;-40
2023/07/12 17:11:58;;;;;;;;;;;;;;;;;;5046544;28;19963;-40
2023/07/12 17:14:24;;;;;;;;;;;;;;;;;;5046042;28;19924;-40
2023/07/12 17:16:50;;;;;;;;;;;;;;;;;;5030735;28;19913;-40
2023/07/12 17:19:16;;;;;;;;;;;;;;;;;;5047324;28;19913;-40
2023/07/12 17:21:42;;;;;;;;;;;;;;;;;;5049683;28;19913;-40
2023/07/12 17:24:08;;;;;;;;;;;;;;;;;;5049412;28;19913;-40
2023/07/12 17:26:33;;;;;;;;;;;;;;;;;;5040173;28;20415;-40
2023/07/12 17:28:59;;;;;;;;;;;;;;;;;;5036608;28;20000;-41
2023/07/12 17:31:25;;;;;;;;;;;;;;;;;;5046842;28;19944;-40
2023/07/12 17:33:51;;;;;;;;;;;;;;;;;;5050079;28;19909;-41
2023/07/12 17:36:17;;;;;;;;;;;;;;;;;;5048604;28;19956;-40
2023/07/12 17:38:43;;;;;;;;;;;;;;;;;;5044844;28;20023;-41
2023/07/12 17:41:09;;;;;;;;;;;;;;;;;;5053919;28;19938;-40
2023/07/12 17:43:35;;;;;;;;;;;;;;;;;;5050732;28;20007;-40
2023/07/12 17:46:01;;;;;;;;;;;;;;;;;;5048044;28;19913;-40
2023/07/12 17:48:27;;;;;;;;;;;;;;;;;;5045631;28;19920;-40
2023/07/12 17:50:53;;;;;;;;;;;;;;;;;;5046252;28;19920;-41
2023/07/12 17:53:20;;;;;;;;;;;;;;;;;;5048188;28;19959;-40
2023/07/12 17:55:47;;;;;;;;;;;;;;;;;;5045683;28;19913;-40
2023/07/12 17:58:12;;;;;;;;;;;;;;;;;;5045103;28;19924;-40
2023/07/12 18:00:39;;;;;;;;;;;;;;;;;;5045611;28;19912;-40
2023/07/12 18:03:04;;;;;;;;;;;;;;;;;;5045696;28;19949;-40
2023/07/12 18:05:31;;;;;;;;;;;;;;;;;;5042108;28;19913;-40
2023/07/12 18:07:59;;;;;;;;;;;;;;;;;;5025435;28;19948;-40
2023/07/12 18:10:25;;;;;;;;;;;;;;;;;;5042153;28;20335;-40
2023/07/12 18:12:51;;;;;;;;;;;;;;;;;;5021721;28;19947;-40
2023/07/12 18:15:17;;;;;;;;;;;;;;;;;;5025523;28;19917;-40
2023/07/12 18:17:42;;;;;;;;;;;;;;;;;;5044699;28;19921;-40
2023/07/12 18:20:08;;;;;;;;;;;;;;;;;;5041320;28;19917;-41
2023/07/12 18:22:34;;;;;;;;;;;;;;;;;;5043278;28;19917;-40
2023/07/12 18:25:00;;;;;;;;;;;;;;;;;;5045888;28;19920;-40
2023/07/12 18:27:26;;;;;;;;;;;;;;;;;;5043124;28;20355;-40
2023/07/12 18:29:52;;;;;;;;;;;;;;;;;;5047593;28;19919;-40
2023/07/12 18:32:18;;;;;;;;;;;;;;;;;;5044257;28;20411;-41
2023/07/12 18:34:44;;;;;;;;;;;;;;;;;;5045846;28;19916;-40
2023/07/12 18:37:10;;;;;;;;;;;;;;;;;;5047181;28;19913;-40
2023/07/12 18:39:35;;;;;;;;;;;;;;;;;;5049918;28;19913;-40
2023/07/12 18:42:01;;;;;;;;;;;;;;;;;;5043884;28;19912;-40
2023/07/12 18:44:27;;;;;;;;;;;;;;;;;;5047402;28;19956;-40
2023/07/12 18:46:55;;;;;;;;;;;;;;;;;;5043449;28;19917;-40
2023/07/12 18:49:21;;;;;;;;;;;;;;;;;;5045405;28;20294;-40
2023/07/12 18:51:47;;;;;;;;;;;;;;;;;;5029992;28;20136;-40
2023/07/12 18:54:13;;;;;;;;;;;;;;;;;;5048318;28;19916;-40
2023/07/12 18:56:39;;;;;;;;;;;;;;;;;;5046151;28;19992;-40
2023/07/12 18:59:05;;;;;;;;;;;;;;;;;;5047432;28;20147;-40
2023/07/12 19:01:31;;;;;;;;;;;;;;;;;;5048146;28;19954;-40
2023/07/12 19:03:57;;;;;;;;;;;;;;;;;;5046829;28;19913;-40
2023/07/12 19:06:23;;;;;;;;;;;;;;;;;;5046858;28;20517;-40
2023/07/12 19:08:49;;;;;;;;;;;;;;;;;;5028404;28;19952;-40
2023/07/12 19:11:15;;;;;;;;;;;;;;;;;;5046976;28;19967;-40
2023/07/12 19:13:41;;;;;;;;;;;;;;;;;;5044879;28;20050;-40
2023/07/12 19:16:07;;;;;;;;;;;;;;;;;;5048284;28;19920;-40
2023/07/12 19:18:33;;;;;;;;;;;;;;;;;;5046995;28;19928;-40
2023/07/12 19:20:59;;;;;;;;;;;;;;;;;;5043350;28;19913;-40
2023/07/12 19:23:25;;;;;;;;;;;;;;;;;;5046569;28;20171;-40
2023/07/12 19:25:50;;;;;;;;;;;;;;;;;;5046564;28;19920;-40
2023/07/12 19:28:16;;;;;;;;;;;;;;;;;;5044104;28;19913;-40
2023/07/12 19:30:42;;;;;;;;;;;;;;;;;;5046596;28;20197;-40
2023/07/12 19:33:08;;;;;;;;;;;;;;;;;;5046655;28;19944;-40
2023/07/12 19:35:34;;;;;;;;;;;;;;;;;;5046786;28;19909;-40
2023/07/12 19:38:01;;;;;;;;;;;;;;;;;;5045062;28;19921;-40
2023/07/12 19:40:27;;;;;;;;;;;;;;;;;;5045181;28;20365;-40
2023/07/12 19:42:53;;;;;;;;;;;;;;;;;;5048048;28;19915;-40
2023/07/12 19:45:20;;;;;;;;;;;;;;;;;;5046459;28;19925;-40
2023/07/12 19:47:45;;;;;;;;;;;;;;;;;;5047582;28;19991;-40
2023/07/12 19:50:11;;;;;;;;;;;;;;;;;;5027937;28;20015;-40
2023/07/12 19:52:37;;;;;;;;;;;;;;;;;;5045067;28;20209;-40
2023/07/12 19:55:03;;;;;;;;;;;;;;;;;;5046244;28;19913;-40
2023/07/12 19:57:29;;;;;;;;;;;;;;;;;;5044012;28;19966;-40
2023/07/12 19:59:55;;;;;;;;;;;;;;;;;;5045530;28;19924;-40
2023/07/12 20:02:21;;;;;;;;;;;;;;;;;;5045287;28;19923;-40
2023/07/12 20:04:47;;;;;;;;;;;;;;;;;;5047199;28;19917;-40
2023/07/12 20:07:13;;;;;;;;;;;;;;;;;;5046896;28;19962;-40
2023/07/12 20:09:39;;;;;;;;;;;;;;;;;;5045144;28;20007;-40
2023/07/12 20:12:05;;;;;;;;;;;;;;;;;;5046113;28;19917;-40
2023/07/12 20:14:31;;;;;;;;;;;;;;;;;;5044729;28;19921;-40
2023/07/12 20:16:56;;;;;;;;;;;;;;;;;;5044126;28;20398;-40
2023/07/12 20:19:22;;;;;;;;;;;;;;;;;;5046477;28;19913;-40
2023/07/12 20:21:48;;;;;;;;;;;;;;;;;;5043410;28;20379;-40
2023/07/12 20:24:14;;;;;;;;;;;;;;;;;;5046202;28;20364;-40
2023/07/12 20:26:40;;;;;;;;;;;;;;;;;;5044654;28;20000;-40
2023/07/12 20:29:06;;;;;;;;;;;;;;;;;;5045481;28;19920;-40
2023/07/12 20:31:32;;;;;;;;;;;;;;;;;;5046310;28;20390;-40
2023/07/12 20:33:59;;;;;;;;;;;;;;;;;;5045736;28;19916;-40
2023/07/12 20:36:25;;;;;;;;;;;;;;;;;;5045089;28;20395;-40
2023/07/12 20:38:51;;;;;;;;;;;;;;;;;;5028476;28;19909;-40
2023/07/12 20:41:17;;;;;;;;;;;;;;;;;;5045358;28;19923;-40
2023/07/12 20:43:43;;;;;;;;;;;;;;;;;;5027539;28;20411;-40
2023/07/12 20:46:08;;;;;;;;;;;;;;;;;;5044551;28;19913;-40
2023/07/12 20:48:34;;;;;;;;;;;;;;;;;;5026363;28;19920;-40
2023/07/12 20:51:00;;;;;;;;;;;;;;;;;;5046373;28;19916;-40
2023/07/12 20:53:26;;;;;;;;;;;;;;;;;;5045460;28;19923;-40
2023/07/12 20:55:52;;;;;;;;;;;;;;;;;;5044652;28;19958;-40
2023/07/12 20:58:18;;;;;;;;;;;;;;;;;;5044429;28;19920;-40
2023/07/12 21:00:44;;;;;;;;;;;;;;;;;;5044200;28;19917;-40
2023/07/12 21:03:10;;;;;;;;;;;;;;;;;;5045644;28;19909;-39
2023/07/12 21:05:36;;;;;;;;;;;;;;;;;;5045833;28;20376;-40
2023/07/12 21:08:02;;;;;;;;;;;;;;;;;;5045237;28;19959;-40
2023/07/12 21:10:28;;;;;;;;;;;;;;;;;;5043136;28;19916;-40
2023/07/12 21:12:53;;;;;;;;;;;;;;;;;;5031820;28;19916;-40
2023/07/12 21:15:19;;;;;;;;;;;;;;;;;;5043017;28;19963;-40
2023/07/12 21:17:45;;;;;;;;;;;;;;;;;;5027388;28;19912;-40
2023/07/12 21:20:11;;;;;;;;;;;;;;;;;;5042155;28;19908;-41
2023/07/12 21:22:38;;;;;;;;;;;;;;;;;;5045830;28;19921;-41
2023/07/12 21:25:04;;;;;;;;;;;;;;;;;;5045028;28;20264;-40
2023/07/12 21:27:31;;;;;;;;;;;;;;;;;;5043823;28;19932;-40
2023/07/12 21:29:57;;;;;;;;;;;;;;;;;;5045929;28;20258;-40
2023/07/12 21:32:23;;;;;;;;;;;;;;;;;;5043967;28;19979;-40
2023/07/12 21:34:50;;;;;;;;;;;;;;;;;;5045953;28;19923;-41
2023/07/12 21:37:16;;;;;;;;;;;;;;;;;;5045062;28;20020;-40
2023/07/12 21:39:42;;;;;;;;;;;;;;;;;;5021509;28;19996;-40
2023/07/12 21:42:07;;;;;;;;;;;;;;;;;;5046489;28;19913;-40
2023/07/12 21:44:33;;;;;;;;;;;;;;;;;;5040385;28;20422;-40
2023/07/12 21:46:59;;;;;;;;;;;;;;;;;;5046088;28;20007;-40